createdAt,value
2019-03-17T00:04:00.000Z,98089
2019-03-17T00:09:00.000Z,98088
2019-03-17T00:14:00.000Z,98098
2019-03-17T00:19:00.000Z,98076
2019-03-17T00:24:00.000Z,98100
2019-03-17T00:29:00.000Z,98084
2019-03-17T00:34:00.000Z,98068
2019-03-17T00:39:00.000Z,98083
2019-03-17T00:44:00.000Z,98074
2019-03-17T00:49:00.000Z,98075
2019-03-17T00:54:00.000Z,98065
2019-03-17T00:59:00.000Z,98070
2019-03-17T01:04:00.000Z,98077
2019-03-17T01:09:00.000Z,98069
2019-03-17T01:14:00.000Z,98070
2019-03-17T01:19:00.000Z,98064
2019-03-17T01:24:00.000Z,98061
2019-03-17T01:30:00.000Z,98063
2019-03-17T01:35:00.000Z,98041
2019-03-17T01:40:00.000Z,98043
2019-03-17T01:45:00.000Z,98040
2019-03-17T01:50:00.000Z,98056
2019-03-17T01:55:00.000Z,98043
2019-03-17T02:00:00.000Z,98043
2019-03-17T02:05:00.000Z,98032
2019-03-17T02:10:00.000Z,98029
2019-03-17T02:15:00.000Z,98013
2019-03-17T02:20:00.000Z,98032
2019-03-17T02:25:00.000Z,98028
2019-03-17T02:30:00.000Z,98020
2019-03-17T02:35:00.000Z,98019
2019-03-17T02:40:00.000Z,98030
2019-03-17T02:45:00.000Z,98018
2019-03-17T02:50:00.000Z,98013
2019-03-17T02:55:00.000Z,98012
2019-03-17T03:00:00.000Z,98010
2019-03-17T03:05:00.000Z,98019
2019-03-17T03:10:00.000Z,98016
2019-03-17T03:15:00.000Z,98023
2019-03-17T03:20:00.000Z,98030
2019-03-17T03:25:00.000Z,98024
2019-03-17T03:30:00.000Z,98027
2019-03-17T03:36:00.000Z,98021
2019-03-17T03:41:00.000Z,98037
2019-03-17T03:46:00.000Z,98026
2019-03-17T03:51:00.000Z,98030
2019-03-17T03:56:00.000Z,98007
2019-03-17T04:01:00.000Z,98027
2019-03-17T04:06:00.000Z,98024
2019-03-17T04:11:00.000Z,98027
2019-03-17T04:16:00.000Z,98026
2019-03-17T04:21:00.000Z,98020
2019-03-17T04:26:00.000Z,98024
2019-03-17T04:31:00.000Z,98011
2019-03-17T04:36:00.000Z,98012
2019-03-17T04:41:00.000Z,98004
2019-03-17T04:46:00.000Z,98007
2019-03-17T04:51:00.000Z,98012
2019-03-17T04:56:00.000Z,98014
2019-03-17T05:01:00.000Z,98006
2019-03-17T05:06:00.000Z,98018
2019-03-17T05:11:00.000Z,98008
2019-03-17T05:16:00.000Z,98014
2019-03-17T05:21:00.000Z,98013
2019-03-17T05:26:00.000Z,98024
2019-03-17T05:31:00.000Z,98027
2019-03-17T05:36:00.000Z,98015
2019-03-17T05:42:00.000Z,98011
2019-03-17T05:47:00.000Z,97998
2019-03-17T05:52:00.000Z,98015
2019-03-17T05:57:00.000Z,98028
2019-03-17T06:02:00.000Z,98029
2019-03-17T06:07:00.000Z,98026
2019-03-17T06:12:00.000Z,98023
2019-03-17T06:17:00.000Z,98007
2019-03-17T06:22:00.000Z,98019
2019-03-17T06:27:00.000Z,98021
2019-03-17T06:32:00.000Z,98044
2019-03-17T06:37:00.000Z,98035
2019-03-17T06:42:00.000Z,98041
2019-03-17T06:47:00.000Z,98043
2019-03-17T06:52:00.000Z,98043
2019-03-17T06:57:00.000Z,98038
2019-03-17T07:02:00.000Z,98042
2019-03-17T07:07:00.000Z,98042
2019-03-17T07:12:00.000Z,98037
2019-03-17T07:17:00.000Z,98041
2019-03-17T07:22:00.000Z,98036
2019-03-17T07:27:00.000Z,98037
2019-03-17T07:32:00.000Z,98030
2019-03-17T07:37:00.000Z,98031
2019-03-17T07:42:00.000Z,98033
2019-03-17T07:47:00.000Z,98019
2019-03-17T07:52:00.000Z,98020
2019-03-17T07:57:00.000Z,98021
2019-03-17T08:03:00.000Z,98019
2019-03-17T08:08:00.000Z,98028
2019-03-17T08:13:00.000Z,98032
2019-03-17T08:18:00.000Z,98027
2019-03-17T08:23:00.000Z,98014
2019-03-17T08:28:00.000Z,98027
2019-03-17T08:33:00.000Z,98030
2019-03-17T08:38:00.000Z,98032
2019-03-17T08:43:00.000Z,98025
2019-03-17T08:48:00.000Z,98037
2019-03-17T08:53:00.000Z,98017
2019-03-17T08:58:00.000Z,98001
2019-03-17T09:03:00.000Z,98019
2019-03-17T09:08:00.000Z,98013
2019-03-17T09:13:00.000Z,98012
2019-03-17T09:18:00.000Z,98004
2019-03-17T09:23:00.000Z,97997
2019-03-17T09:28:00.000Z,97991
2019-03-17T09:33:00.000Z,98003
2019-03-17T09:38:00.000Z,97978
2019-03-17T09:43:00.000Z,97978
2019-03-17T09:48:00.000Z,97996
2019-03-17T09:53:00.000Z,97998
2019-03-17T09:58:00.000Z,97990
2019-03-17T10:03:00.000Z,97980
2019-03-17T10:08:00.000Z,97967
2019-03-17T10:14:00.000Z,97972
2019-03-17T10:19:00.000Z,97988
2019-03-17T10:24:00.000Z,97979
2019-03-17T10:29:00.000Z,97975
2019-03-17T10:34:00.000Z,97975
2019-03-17T10:39:00.000Z,97965
2019-03-17T10:44:00.000Z,97957
2019-03-17T10:49:00.000Z,97960
2019-03-17T10:54:00.000Z,97947
2019-03-17T10:59:00.000Z,97943
2019-03-17T11:04:00.000Z,97933
2019-03-17T11:09:00.000Z,97925
2019-03-17T11:14:00.000Z,97924
2019-03-17T11:19:00.000Z,97915
2019-03-17T11:24:00.000Z,97907
2019-03-17T11:29:00.000Z,97908
2019-03-17T11:34:00.000Z,97905
2019-03-17T11:39:00.000Z,97885
2019-03-17T11:44:00.000Z,97876
2019-03-17T11:49:00.000Z,97860
2019-03-17T11:54:00.000Z,97847
2019-03-17T11:59:00.000Z,97839
2019-03-17T12:04:00.000Z,97822
2019-03-17T12:09:00.000Z,97800
2019-03-17T12:14:00.000Z,97786
2019-03-17T12:19:00.000Z,97781
2019-03-17T12:24:00.000Z,97765
2019-03-17T12:29:00.000Z,97761
2019-03-17T12:34:00.000Z,97758
2019-03-17T12:39:00.000Z,97746
2019-03-17T12:45:00.000Z,97745
2019-03-17T12:50:00.000Z,97737
2019-03-17T12:55:00.000Z,97736
2019-03-17T13:00:00.000Z,97704
2019-03-17T13:05:00.000Z,97695
2019-03-17T13:10:00.000Z,97685
2019-03-17T13:15:00.000Z,97672
2019-03-17T13:20:00.000Z,97656
2019-03-17T13:25:00.000Z,97632
2019-03-17T13:30:00.000Z,97624
2019-03-17T13:35:00.000Z,97622
2019-03-17T13:40:00.000Z,97609
2019-03-17T13:45:00.000Z,97614
2019-03-17T13:50:00.000Z,97602
2019-03-17T13:55:00.000Z,97601
2019-03-17T14:00:00.000Z,97592
2019-03-17T14:05:00.000Z,97585
2019-03-17T14:10:00.000Z,97581
2019-03-17T14:15:00.000Z,97558
2019-03-17T14:20:00.000Z,97559
2019-03-17T14:25:00.000Z,97551
2019-03-17T14:30:00.000Z,97532
2019-03-17T14:35:00.000Z,97533
2019-03-17T14:40:00.000Z,97521
2019-03-17T14:45:00.000Z,97513
2019-03-17T14:50:00.000Z,97505
2019-03-17T14:55:00.000Z,97490
2019-03-17T15:00:00.000Z,97483
2019-03-17T15:06:00.000Z,97471
2019-03-17T15:11:00.000Z,97460
2019-03-17T15:16:00.000Z,97457
2019-03-17T15:21:00.000Z,97466
2019-03-17T15:26:00.000Z,97465
2019-03-17T15:31:00.000Z,97445
2019-03-17T15:36:00.000Z,97438
2019-03-17T15:41:00.000Z,97433
2019-03-17T15:46:00.000Z,97416
2019-03-17T15:51:00.000Z,97418
2019-03-17T15:56:00.000Z,97412
2019-03-17T16:01:00.000Z,97387
2019-03-17T16:06:00.000Z,97388
2019-03-17T16:11:00.000Z,97387
2019-03-17T16:16:00.000Z,97374
2019-03-17T16:21:00.000Z,97371
2019-03-17T16:26:00.000Z,97371
2019-03-17T16:31:00.000Z,97380
2019-03-17T16:36:00.000Z,97376
2019-03-17T16:41:00.000Z,97367
2019-03-17T16:46:00.000Z,97366
2019-03-17T16:51:00.000Z,97354
2019-03-17T16:56:00.000Z,97365
2019-03-17T17:01:00.000Z,97354
2019-03-17T17:06:00.000Z,97338
2019-03-17T17:11:00.000Z,97339
2019-03-17T17:16:00.000Z,97340
2019-03-17T17:21:00.000Z,97346
2019-03-17T17:26:00.000Z,97330
2019-03-17T17:32:00.000Z,97342
2019-03-17T17:37:00.000Z,97337
2019-03-17T17:42:00.000Z,97337
2019-03-17T17:47:00.000Z,97341
2019-03-17T17:52:00.000Z,97347
2019-03-17T17:57:00.000Z,97338
2019-03-17T18:02:00.000Z,97343
2019-03-17T18:07:00.000Z,97343
2019-03-17T18:12:00.000Z,97342
2019-03-17T18:17:00.000Z,97347
2019-03-17T18:22:00.000Z,97352
2019-03-17T18:27:00.000Z,97352
2019-03-17T18:32:00.000Z,97351
2019-03-17T18:37:00.000Z,97357
2019-03-17T18:42:00.000Z,97354
2019-03-17T18:47:00.000Z,97364
2019-03-17T18:52:00.000Z,97362
2019-03-17T18:57:00.000Z,97358
2019-03-17T19:02:00.000Z,97367
2019-03-17T19:07:00.000Z,97368
2019-03-17T19:12:00.000Z,97381
2019-03-17T19:17:00.000Z,97378
2019-03-17T19:22:00.000Z,97390
2019-03-17T19:27:00.000Z,97386
2019-03-17T19:32:00.000Z,97389
2019-03-17T19:37:00.000Z,97405
2019-03-17T19:42:00.000Z,97411
2019-03-17T19:47:00.000Z,97424
2019-03-17T19:53:00.000Z,97422
2019-03-17T19:58:00.000Z,97425
2019-03-17T20:03:00.000Z,97435
2019-03-17T20:08:00.000Z,97440
2019-03-17T20:13:00.000Z,97438
2019-03-17T20:18:00.000Z,97443
2019-03-17T20:23:00.000Z,97449
2019-03-17T20:28:00.000Z,97451
2019-03-17T20:33:00.000Z,97453
2019-03-17T20:38:00.000Z,97475
2019-03-17T20:43:00.000Z,97474
2019-03-17T20:48:00.000Z,97484
2019-03-17T20:53:00.000Z,97500
2019-03-17T20:58:00.000Z,97516
2019-03-17T21:03:00.000Z,97522
2019-03-17T21:08:00.000Z,97542
2019-03-17T21:13:00.000Z,97564
2019-03-17T21:18:00.000Z,97572
2019-03-17T21:23:00.000Z,97590
2019-03-17T21:28:00.000Z,97603
2019-03-17T21:33:00.000Z,97621
2019-03-17T21:38:00.000Z,97631
2019-03-17T21:43:00.000Z,97646
2019-03-17T21:48:00.000Z,97677
2019-03-17T21:54:00.000Z,97690
2019-03-17T21:59:00.000Z,97722
2019-03-17T22:04:00.000Z,97768
2019-03-17T22:09:00.000Z,97798
2019-03-17T22:14:00.000Z,97825
2019-03-17T22:19:00.000Z,97859
2019-03-17T22:24:00.000Z,97919
2019-03-17T22:29:00.000Z,97962
2019-03-17T22:34:00.000Z,97935
2019-03-17T22:39:00.000Z,97976
2019-03-17T22:44:00.000Z,97980
2019-03-17T22:49:00.000Z,98003
2019-03-17T22:54:00.000Z,97997
2019-03-17T22:59:00.000Z,98035
2019-03-17T23:04:00.000Z,98035
2019-03-17T23:09:00.000Z,98067
2019-03-17T23:14:00.000Z,98092
2019-03-17T23:19:00.000Z,98110
2019-03-17T23:24:00.000Z,98124
2019-03-17T23:29:00.000Z,98136
2019-03-17T23:34:00.000Z,98135
2019-03-17T23:39:00.000Z,98168
2019-03-17T23:44:00.000Z,98192
2019-03-17T23:49:00.000Z,98208
2019-03-17T23:54:00.000Z,98229
2019-03-17T23:59:00.000Z,98232
